createdAt,value
2023-04-29T00:00:04.093Z,90
2023-04-29T00:00:34.244Z,90
2023-04-29T00:01:06.188Z,90
2023-04-29T00:01:34.385Z,90
2023-04-29T00:01:54.299Z,90
2023-04-29T00:02:26.355Z,90
2023-04-29T00:02:58.302Z,90
2023-04-29T00:03:30.373Z,90
2023-04-29T00:04:02.388Z,90
2023-04-29T00:04:34.530Z,90
2023-04-29T00:05:07.110Z,90
2023-04-29T00:05:34.437Z,90
2023-04-29T00:05:54.562Z,90
2023-04-29T00:06:26.297Z,90
2023-04-29T00:06:58.174Z,90
2023-04-29T00:07:30.171Z,90
2023-04-29T00:08:02.151Z,90
2023-04-29T00:08:34.801Z,90
2023-04-29T00:09:06.310Z,90
2023-04-29T00:09:34.581Z,90
2023-04-29T00:09:54.487Z,90
2023-04-29T00:10:26.556Z,90
2023-04-29T00:10:58.212Z,90
2023-04-29T00:11:30.171Z,90
2023-04-29T00:12:02.221Z,90
2023-04-29T00:12:34.553Z,90
2023-04-29T00:13:06.256Z,90
2023-04-29T00:13:34.411Z,90
2023-04-29T00:13:54.226Z,90
2023-04-29T00:14:26.198Z,90
2023-04-29T00:14:58.856Z,90
2023-04-29T00:15:31.191Z,90
2023-04-29T00:16:03.494Z,90
2023-04-29T00:16:34.236Z,90
2023-04-29T00:17:06.351Z,90
2023-04-29T00:17:34.593Z,90
2023-04-29T00:17:54.468Z,90
2023-04-29T00:18:26.197Z,90
2023-04-29T00:18:58.174Z,90
2023-04-29T00:19:30.284Z,90
2023-04-29T00:20:03.760Z,90
2023-04-29T00:20:34.900Z,90
2023-04-29T00:21:06.385Z,90
2023-04-29T00:21:34.438Z,90
2023-04-29T00:21:54.201Z,90
2023-04-29T00:22:26.220Z,90
2023-04-29T00:22:58.482Z,90
2023-04-29T00:23:30.154Z,90
2023-04-29T00:24:02.153Z,90
2023-04-29T00:24:35.618Z,90
2023-04-29T00:25:06.625Z,90
2023-04-29T00:25:34.416Z,90
2023-04-29T00:25:54.478Z,90
2023-04-29T00:26:26.239Z,90
2023-04-29T00:26:58.239Z,90
2023-04-29T00:27:30.186Z,90
2023-04-29T00:28:02.287Z,90
2023-04-29T00:28:34.221Z,90
2023-04-29T00:29:06.261Z,90
2023-04-29T00:29:34.432Z,90
2023-04-29T00:29:54.527Z,90
2023-04-29T00:30:26.674Z,90
2023-04-29T00:30:59.006Z,90
2023-04-29T00:31:30.240Z,90
2023-04-29T00:32:02.167Z,90
2023-04-29T00:32:34.705Z,90
2023-04-29T00:33:06.240Z,90
2023-04-29T00:33:34.500Z,90
2023-04-29T00:33:54.257Z,90
2023-04-29T00:34:26.245Z,90
2023-04-29T00:34:58.132Z,90
2023-04-29T00:35:30.490Z,90
2023-04-29T00:36:02.263Z,90
2023-04-29T00:36:34.768Z,90
2023-04-29T00:37:06.206Z,90
2023-04-29T00:37:34.395Z,90
2023-04-29T00:37:54.250Z,90
2023-04-29T00:38:26.214Z,90
2023-04-29T00:38:58.211Z,90
2023-04-29T00:39:30.165Z,90
2023-04-29T00:40:03.774Z,90
2023-04-29T00:40:35.329Z,90
2023-04-29T00:41:06.464Z,90
2023-04-29T00:41:34.596Z,90
2023-04-29T00:41:54.276Z,90
2023-04-29T00:42:27.192Z,90
2023-04-29T00:42:58.262Z,90
2023-04-29T00:43:30.272Z,90
2023-04-29T00:44:03.589Z,90
2023-04-29T00:44:35.028Z,90
2023-04-29T00:45:08.336Z,90
2023-04-29T00:45:34.615Z,90
2023-04-29T00:45:54.798Z,90
2023-04-29T00:46:26.529Z,90
2023-04-29T00:46:59.020Z,90
2023-04-29T00:47:30.200Z,90
2023-04-29T00:48:02.383Z,90
2023-04-29T00:48:34.212Z,90
2023-04-29T00:49:06.371Z,90
2023-04-29T00:49:34.566Z,90
2023-04-29T00:49:54.690Z,90
2023-04-29T00:50:26.566Z,90
2023-04-29T00:51:00.360Z,90
2023-04-29T00:51:30.279Z,90
2023-04-29T00:52:02.163Z,90
2023-04-29T00:52:34.310Z,90
2023-04-29T00:53:06.246Z,90
2023-04-29T00:53:34.654Z,90
2023-04-29T00:53:54.239Z,90
2023-04-29T00:54:26.230Z,90
2023-04-29T00:54:58.190Z,90
2023-04-29T00:55:30.500Z,90
2023-04-29T00:56:02.178Z,90
2023-04-29T00:56:34.919Z,90
2023-04-29T00:57:06.239Z,90
2023-04-29T00:57:34.536Z,90
2023-04-29T00:57:54.335Z,90
2023-04-29T00:58:26.246Z,90
2023-04-29T00:58:58.220Z,90
2023-04-29T00:59:30.260Z,90
2023-04-29T01:00:04.168Z,90
2023-04-29T01:00:34.890Z,90
2023-04-29T01:01:06.306Z,90
2023-04-29T01:01:34.533Z,90
2023-04-29T01:01:54.297Z,90
2023-04-29T01:02:26.360Z,90
2023-04-29T01:02:59.146Z,90
2023-04-29T01:03:30.444Z,90
2023-04-29T01:04:02.325Z,90
2023-04-29T01:04:34.794Z,90
2023-04-29T01:05:06.696Z,90
2023-04-29T01:05:34.410Z,90
2023-04-29T01:05:54.490Z,90
2023-04-29T01:06:26.239Z,90
2023-04-29T01:06:58.194Z,90
2023-04-29T01:07:30.223Z,90
2023-04-29T01:08:02.226Z,90
2023-04-29T01:08:34.910Z,90
2023-04-29T01:09:06.170Z,90
2023-04-29T01:09:35.020Z,90
2023-04-29T01:09:54.459Z,90
2023-04-29T01:10:26.561Z,90
2023-04-29T01:10:59.067Z,90
2023-04-29T01:11:30.170Z,90
2023-04-29T01:12:02.189Z,90
2023-04-29T01:12:34.218Z,90
2023-04-29T01:13:06.186Z,90
2023-04-29T01:13:34.964Z,90
2023-04-29T01:13:54.247Z,90
2023-04-29T01:14:26.255Z,90
2023-04-29T01:14:58.523Z,90
2023-04-29T01:15:31.269Z,90
2023-04-29T01:16:03.682Z,90
2023-04-29T01:16:34.398Z,90
2023-04-29T01:17:06.284Z,90
2023-04-29T01:17:34.412Z,90
2023-04-29T01:17:54.331Z,90
2023-04-29T01:18:26.225Z,90
2023-04-29T01:18:58.191Z,90
2023-04-29T01:19:30.205Z,90
2023-04-29T01:20:03.825Z,90
2023-04-29T01:20:35.126Z,90
2023-04-29T01:21:06.192Z,90
2023-04-29T01:21:34.425Z,90
2023-04-29T01:21:54.209Z,90
2023-04-29T01:22:26.252Z,90
2023-04-29T01:22:58.210Z,90
2023-04-29T01:23:30.288Z,90
2023-04-29T01:24:02.245Z,90
2023-04-29T01:24:34.261Z,90
2023-04-29T01:25:06.708Z,90
2023-04-29T01:25:34.434Z,90
2023-04-29T01:25:54.534Z,90
2023-04-29T01:26:26.269Z,90
2023-04-29T01:26:58.956Z,90
2023-04-29T01:27:30.167Z,90
2023-04-29T01:28:02.191Z,90
2023-04-29T01:28:34.209Z,90
2023-04-29T01:29:06.229Z,90
2023-04-29T01:29:34.405Z,90
2023-04-29T01:29:54.461Z,90
2023-04-29T01:30:26.761Z,90
2023-04-29T01:30:58.283Z,90
2023-04-29T01:31:30.240Z,90
2023-04-29T01:32:02.206Z,90
2023-04-29T01:32:34.680Z,90
2023-04-29T01:33:06.673Z,90
2023-04-29T01:33:34.810Z,90
2023-04-29T01:33:54.170Z,90
2023-04-29T01:34:26.152Z,90
2023-04-29T01:34:58.186Z,90
2023-04-29T01:35:30.444Z,90
2023-04-29T01:36:02.159Z,90
2023-04-29T01:36:34.985Z,90
2023-04-29T01:37:06.177Z,90
2023-04-29T01:37:34.370Z,90
2023-04-29T01:37:54.185Z,90
2023-04-29T01:38:26.184Z,90
2023-04-29T01:38:58.138Z,90
2023-04-29T01:39:30.167Z,90
2023-04-29T01:40:03.809Z,90
2023-04-29T01:40:34.202Z,90
2023-04-29T01:41:06.170Z,90
2023-04-29T01:41:34.421Z,90
2023-04-29T01:41:54.188Z,90
2023-04-29T01:42:26.175Z,90
2023-04-29T01:42:58.813Z,90
2023-04-29T01:43:30.157Z,90
2023-04-29T01:44:02.132Z,90
2023-04-29T01:44:34.181Z,90
2023-04-29T01:45:06.890Z,90
2023-04-29T01:45:34.634Z,90
2023-04-29T01:45:54.477Z,90
2023-04-29T01:46:26.207Z,90
2023-04-29T01:46:58.275Z,90
2023-04-29T01:47:30.148Z,90
2023-04-29T01:48:02.243Z,90
2023-04-29T01:48:34.195Z,90
2023-04-29T01:49:06.185Z,90
2023-04-29T01:49:34.357Z,90
2023-04-29T01:49:54.482Z,90
2023-04-29T01:50:26.454Z,90
2023-04-29T01:50:58.134Z,90
2023-04-29T01:51:30.162Z,90
2023-04-29T01:52:02.176Z,90
2023-04-29T01:52:34.987Z,90
2023-04-29T01:53:06.181Z,90
2023-04-29T01:53:34.760Z,90
2023-04-29T01:53:54.185Z,90
2023-04-29T01:54:26.153Z,90
2023-04-29T01:54:58.181Z,90
2023-04-29T01:55:30.511Z,90
2023-04-29T01:56:02.142Z,90
2023-04-29T01:56:34.550Z,90
2023-04-29T01:57:06.158Z,90
2023-04-29T01:57:34.477Z,90
2023-04-29T01:57:54.164Z,90
2023-04-29T01:58:26.131Z,90
2023-04-29T01:59:02.534Z,90
2023-04-29T01:59:31.646Z,90
2023-04-29T02:00:04.033Z,90
2023-04-29T02:00:34.217Z,90
2023-04-29T02:01:06.178Z,90
2023-04-29T02:01:34.357Z,90
2023-04-29T02:01:54.166Z,90
2023-04-29T02:02:26.173Z,90
2023-04-29T02:02:58.248Z,90
2023-04-29T02:03:30.355Z,90
2023-04-29T02:04:02.254Z,90
2023-04-29T02:04:34.191Z,90
2023-04-29T02:05:06.595Z,90
2023-04-29T02:05:34.715Z,90
2023-04-29T02:05:54.420Z,90
2023-04-29T02:06:26.122Z,90
2023-04-29T02:06:58.421Z,90
2023-04-29T02:07:30.175Z,90
2023-04-29T02:08:02.183Z,90
2023-04-29T02:08:34.912Z,90
2023-04-29T02:09:06.126Z,90
2023-04-29T02:09:34.856Z,90
2023-04-29T02:09:54.549Z,90
2023-04-29T02:10:26.911Z,90
2023-04-29T02:10:58.219Z,90
2023-04-29T02:11:30.157Z,90
2023-04-29T02:12:02.153Z,90
2023-04-29T02:12:34.181Z,90
2023-04-29T02:13:06.257Z,90
2023-04-29T02:13:34.868Z,90
2023-04-29T02:13:54.273Z,90
2023-04-29T02:14:26.161Z,90
2023-04-29T02:14:58.810Z,90
2023-04-29T02:15:30.690Z,90
2023-04-29T02:16:03.539Z,90
2023-04-29T02:16:34.206Z,90
2023-04-29T02:17:06.171Z,90
2023-04-29T02:17:34.651Z,90
2023-04-29T02:17:54.237Z,90
2023-04-29T02:18:26.146Z,90
2023-04-29T02:18:58.148Z,90
2023-04-29T02:19:30.144Z,90
2023-04-29T02:20:03.760Z,90
2023-04-29T02:20:34.668Z,90
2023-04-29T02:21:06.152Z,90
2023-04-29T02:21:34.380Z,90
2023-04-29T02:21:54.156Z,90
2023-04-29T02:22:26.136Z,90
2023-04-29T02:22:58.118Z,90
2023-04-29T02:23:30.153Z,90
2023-04-29T02:24:02.215Z,90
2023-04-29T02:24:34.877Z,90
2023-04-29T02:25:06.533Z,90
2023-04-29T02:25:34.390Z,90
2023-04-29T02:25:54.408Z,90
2023-04-29T02:26:26.160Z,90
2023-04-29T02:26:58.180Z,90
2023-04-29T02:27:30.163Z,90
2023-04-29T02:28:02.193Z,90
2023-04-29T02:28:34.493Z,90
2023-04-29T02:29:06.166Z,90
2023-04-29T02:29:34.380Z,90
2023-04-29T02:29:54.268Z,90
2023-04-29T02:30:26.729Z,90
2023-04-29T02:30:58.965Z,90
2023-04-29T02:31:30.137Z,90
2023-04-29T02:32:02.268Z,90
2023-04-29T02:32:34.350Z,90
2023-04-29T02:33:08.265Z,90
2023-04-29T02:33:34.319Z,90
2023-04-29T02:33:54.175Z,90
2023-04-29T02:34:26.119Z,90
2023-04-29T02:34:58.176Z,90
2023-04-29T02:35:30.425Z,90
2023-04-29T02:36:02.264Z,90
2023-04-29T02:36:34.153Z,90
2023-04-29T02:37:06.160Z,90
2023-04-29T02:37:34.297Z,90
2023-04-29T02:37:54.956Z,90
2023-04-29T02:38:26.157Z,90
2023-04-29T02:38:58.133Z,90
2023-04-29T02:39:30.155Z,90
2023-04-29T02:40:03.695Z,90
2023-04-29T02:40:35.880Z,90
2023-04-29T02:41:06.140Z,90
2023-04-29T02:41:34.892Z,90
2023-04-29T02:41:54.180Z,90
2023-04-29T02:42:26.156Z,90
2023-04-29T02:42:58.147Z,90
2023-04-29T02:43:30.376Z,90
2023-04-29T02:44:02.196Z,90
2023-04-29T02:44:34.186Z,90
2023-04-29T02:45:06.771Z,90
2023-04-29T02:45:34.469Z,90
2023-04-29T02:45:54.468Z,90
2023-04-29T02:46:26.393Z,90
2023-04-29T02:46:58.895Z,90
2023-04-29T02:47:30.197Z,90
2023-04-29T02:48:02.258Z,90
2023-04-29T02:48:34.432Z,90
2023-04-29T02:49:06.128Z,90
2023-04-29T02:49:34.967Z,90
2023-04-29T02:49:54.408Z,90
2023-04-29T02:50:26.430Z,90
2023-04-29T02:50:58.165Z,90
2023-04-29T02:51:30.163Z,90
2023-04-29T02:52:02.217Z,90
2023-04-29T02:52:34.146Z,90
2023-04-29T02:53:06.155Z,90
2023-04-29T02:53:34.310Z,90
2023-04-29T02:53:54.161Z,90
2023-04-29T02:54:26.109Z,90
2023-04-29T02:54:58.124Z,90
2023-04-29T02:55:30.414Z,90
2023-04-29T02:56:02.298Z,90
2023-04-29T02:56:34.999Z,90
2023-04-29T02:57:06.101Z,90
2023-04-29T02:57:34.298Z,90
2023-04-29T02:57:54.142Z,90
2023-04-29T02:58:26.141Z,90
2023-04-29T02:58:58.453Z,90
2023-04-29T02:59:30.140Z,90
2023-04-29T03:00:04.091Z,90
2023-04-29T03:00:34.156Z,90
2023-04-29T03:01:06.204Z,90
2023-04-29T03:01:34.404Z,90
2023-04-29T03:01:54.181Z,90
2023-04-29T03:02:26.176Z,90
2023-04-29T03:02:59.043Z,90
2023-04-29T03:03:30.355Z,90
2023-04-29T03:04:02.602Z,90
2023-04-29T03:04:34.122Z,90
2023-04-29T03:05:06.649Z,90
2023-04-29T03:05:34.327Z,90
2023-04-29T03:05:54.459Z,90
2023-04-29T03:06:26.143Z,90
2023-04-29T03:06:58.172Z,90
2023-04-29T03:07:30.177Z,90
2023-04-29T03:08:02.333Z,90
2023-04-29T03:08:34.125Z,90
2023-04-29T03:09:06.165Z,90
2023-04-29T03:09:34.971Z,90
2023-04-29T03:09:54.330Z,90
2023-04-29T03:10:26.478Z,90
2023-04-29T03:10:58.908Z,90
2023-04-29T03:11:30.125Z,90
2023-04-29T03:12:02.310Z,90
2023-04-29T03:12:34.117Z,90
2023-04-29T03:13:06.110Z,90
2023-04-29T03:13:34.303Z,90
2023-04-29T03:13:54.150Z,90
2023-04-29T03:14:26.164Z,90
2023-04-29T03:14:58.101Z,90
2023-04-29T03:15:30.685Z,90
2023-04-29T03:16:03.453Z,90
2023-04-29T03:16:34.188Z,90
2023-04-29T03:17:06.177Z,90
2023-04-29T03:17:34.355Z,90
2023-04-29T03:17:54.129Z,90
2023-04-29T03:18:26.107Z,90
2023-04-29T03:18:58.107Z,90
2023-04-29T03:19:30.125Z,90
2023-04-29T03:20:03.683Z,90
2023-04-29T03:20:35.080Z,90
2023-04-29T03:21:06.137Z,90
2023-04-29T03:21:34.331Z,90
2023-04-29T03:21:54.244Z,90
2023-04-29T03:22:26.140Z,90
2023-04-29T03:22:58.131Z,90
2023-04-29T03:23:30.127Z,90
2023-04-29T03:24:02.304Z,90
2023-04-29T03:24:34.166Z,90
2023-04-29T03:25:06.553Z,90
2023-04-29T03:25:34.426Z,90
2023-04-29T03:25:54.355Z,90
2023-04-29T03:26:26.165Z,90
2023-04-29T03:26:58.881Z,90
2023-04-29T03:27:30.118Z,90
2023-04-29T03:28:02.365Z,90
2023-04-29T03:28:34.116Z,90
2023-04-29T03:29:06.125Z,90
2023-04-29T03:29:34.302Z,90
2023-04-29T03:29:54.348Z,90
2023-04-29T03:30:26.617Z,90
2023-04-29T03:30:58.184Z,90
2023-04-29T03:31:30.214Z,90
2023-04-29T03:32:02.372Z,90
2023-04-29T03:32:34.278Z,90
2023-04-29T03:33:06.168Z,90
2023-04-29T03:33:34.318Z,90
2023-04-29T03:33:54.106Z,90
2023-04-29T03:34:26.114Z,90
2023-04-29T03:34:58.109Z,90
2023-04-29T03:35:30.463Z,90
2023-04-29T03:36:02.377Z,90
2023-04-29T03:36:34.842Z,90
2023-04-29T03:37:06.109Z,90
2023-04-29T03:37:34.363Z,90
2023-04-29T03:37:54.149Z,90
2023-04-29T03:38:26.108Z,90
2023-04-29T03:38:58.122Z,90
2023-04-29T03:39:30.156Z,90
2023-04-29T03:40:03.779Z,90
2023-04-29T03:40:34.411Z,90
2023-04-29T03:41:06.124Z,90
2023-04-29T03:41:34.714Z,90
2023-04-29T03:41:55.032Z,90
2023-04-29T03:42:26.103Z,90
2023-04-29T03:42:58.899Z,90
2023-04-29T03:43:30.139Z,90
2023-04-29T03:44:02.340Z,90
2023-04-29T03:44:34.075Z,90
2023-04-29T03:45:06.781Z,90
2023-04-29T03:45:34.426Z,90
2023-04-29T03:45:54.415Z,90
2023-04-29T03:46:26.132Z,90
2023-04-29T03:46:58.212Z,90
2023-04-29T03:47:30.238Z,90
2023-04-29T03:48:02.501Z,90
2023-04-29T03:48:34.145Z,90
2023-04-29T03:49:06.095Z,90
2023-04-29T03:49:34.282Z,90
2023-04-29T03:49:54.311Z,90
2023-04-29T03:50:26.372Z,90
2023-04-29T03:50:58.402Z,90
2023-04-29T03:51:30.234Z,90
2023-04-29T03:52:02.321Z,90
2023-04-29T03:52:35.776Z,90
2023-04-29T03:53:06.137Z,90
2023-04-29T03:53:34.403Z,90
2023-04-29T03:53:54.141Z,90
2023-04-29T03:54:26.132Z,90
2023-04-29T03:54:58.136Z,90
2023-04-29T03:55:30.382Z,90
2023-04-29T03:56:02.386Z,90
2023-04-29T03:56:34.125Z,90
2023-04-29T03:57:06.138Z,90
2023-04-29T03:57:34.293Z,90
2023-04-29T03:57:54.114Z,90
2023-04-29T03:58:26.125Z,90
2023-04-29T03:58:58.665Z,90
2023-04-29T03:59:30.086Z,90
2023-04-29T04:00:03.997Z,90
2023-04-29T04:00:34.192Z,90
2023-04-29T04:01:06.078Z,90
2023-04-29T04:01:34.293Z,90
2023-04-29T04:01:54.160Z,90
2023-04-29T04:02:25.858Z,90
2023-04-29T04:02:57.936Z,90
2023-04-29T04:03:29.985Z,90
2023-04-29T04:04:01.907Z,90
2023-04-29T04:04:33.891Z,90
2023-04-29T04:05:06.095Z,90
2023-04-29T04:05:33.802Z,90
2023-04-29T04:05:53.961Z,90
2023-04-29T04:06:25.633Z,90
2023-04-29T04:06:59.525Z,90
2023-04-29T04:07:31.129Z,90
2023-04-29T04:08:02.222Z,90
2023-04-29T04:08:34.767Z,90
2023-04-29T04:09:06.113Z,90
2023-04-29T04:09:34.409Z,90
2023-04-29T04:09:54.448Z,90
2023-04-29T04:10:26.378Z,90
2023-04-29T04:10:58.573Z,90
2023-04-29T04:11:30.138Z,90
2023-04-29T04:12:02.134Z,90
2023-04-29T04:12:34.242Z,90
2023-04-29T04:13:06.218Z,90
2023-04-29T04:13:35.399Z,90
2023-04-29T04:13:54.098Z,90
2023-04-29T04:14:26.237Z,90
2023-04-29T04:14:59.010Z,90
2023-04-29T04:15:30.685Z,90
2023-04-29T04:16:03.209Z,90
2023-04-29T04:16:34.239Z,90
2023-04-29T04:17:06.107Z,90
2023-04-29T04:17:34.414Z,90
2023-04-29T04:17:54.212Z,90
2023-04-29T04:18:26.171Z,90
2023-04-29T04:18:58.593Z,90
2023-04-29T04:19:30.148Z,90
2023-04-29T04:20:03.406Z,90
2023-04-29T04:20:34.217Z,90
2023-04-29T04:21:07.312Z,90
2023-04-29T04:21:34.359Z,90
2023-04-29T04:21:54.088Z,90
2023-04-29T04:22:26.107Z,90
2023-04-29T04:22:58.595Z,90
2023-04-29T04:23:30.111Z,90
2023-04-29T04:24:02.099Z,90
2023-04-29T04:24:35.017Z,90
2023-04-29T04:25:06.545Z,90
2023-04-29T04:25:34.348Z,90
2023-04-29T04:25:54.363Z,90
2023-04-29T04:26:26.135Z,90
2023-04-29T04:26:58.674Z,90
2023-04-29T04:27:30.244Z,90
2023-04-29T04:28:02.228Z,90
2023-04-29T04:28:34.711Z,90
2023-04-29T04:29:06.279Z,90
2023-04-29T04:29:34.928Z,90
2023-04-29T04:29:54.316Z,90
2023-04-29T04:30:27.113Z,90
2023-04-29T04:31:02.055Z,90
2023-04-29T04:31:30.355Z,90
2023-04-29T04:32:02.269Z,90
2023-04-29T04:32:34.923Z,90
2023-04-29T04:33:06.293Z,90
2023-04-29T04:33:34.534Z,90
2023-04-29T04:33:54.221Z,90
2023-04-29T04:34:26.287Z,90
2023-04-29T04:34:58.758Z,90
2023-04-29T04:35:30.531Z,90
2023-04-29T04:36:02.172Z,90
2023-04-29T04:36:34.320Z,90
2023-04-29T04:37:06.219Z,90
2023-04-29T04:37:34.475Z,90
2023-04-29T04:37:54.193Z,90
2023-04-29T04:38:26.170Z,90
2023-04-29T04:38:58.699Z,90
2023-04-29T04:39:30.199Z,90
2023-04-29T04:40:03.500Z,90
2023-04-29T04:40:34.982Z,90
2023-04-29T04:41:06.169Z,90
2023-04-29T04:41:34.481Z,90
2023-04-29T04:41:54.259Z,90
2023-04-29T04:42:26.165Z,90
2023-04-29T04:42:59.125Z,90
2023-04-29T04:43:30.241Z,90
2023-04-29T04:44:02.232Z,90
2023-04-29T04:44:34.260Z,90
2023-04-29T04:45:06.759Z,90
2023-04-29T04:45:34.548Z,90
2023-04-29T04:45:54.497Z,90
2023-04-29T04:46:26.209Z,90
2023-04-29T04:46:59.101Z,90
2023-04-29T04:47:30.235Z,90
2023-04-29T04:48:02.283Z,90
2023-04-29T04:48:34.298Z,90
2023-04-29T04:49:06.221Z,90
2023-04-29T04:49:35.316Z,90
2023-04-29T04:49:54.533Z,90
2023-04-29T04:50:26.480Z,90
2023-04-29T04:50:58.696Z,90
2023-04-29T04:51:30.269Z,90
2023-04-29T04:52:02.252Z,90
2023-04-29T04:52:34.321Z,90
2023-04-29T04:53:06.314Z,90
2023-04-29T04:53:34.470Z,90
2023-04-29T04:53:54.237Z,90
2023-04-29T04:54:26.164Z,90
2023-04-29T04:54:58.778Z,90
2023-04-29T04:55:30.521Z,90
2023-04-29T04:56:02.236Z,90
2023-04-29T04:56:35.001Z,90
2023-04-29T04:57:06.388Z,90
2023-04-29T04:57:34.900Z,90
2023-04-29T04:57:54.262Z,90
2023-04-29T04:58:26.256Z,90
2023-04-29T04:58:58.708Z,90
2023-04-29T04:59:30.194Z,90
2023-04-29T05:00:03.931Z,90
2023-04-29T05:00:34.336Z,90
2023-04-29T05:01:06.255Z,90
2023-04-29T05:01:34.563Z,90
2023-04-29T05:01:54.256Z,90
2023-04-29T05:02:26.338Z,90
2023-04-29T05:02:59.223Z,90
2023-04-29T05:03:30.416Z,90
2023-04-29T05:04:02.265Z,90
2023-04-29T05:04:34.372Z,90
2023-04-29T05:05:06.482Z,90
2023-04-29T05:05:34.917Z,90
2023-04-29T05:05:54.455Z,90
2023-04-29T05:06:26.218Z,90
2023-04-29T05:06:58.730Z,90
2023-04-29T05:07:30.293Z,90
2023-04-29T05:08:02.227Z,90
2023-04-29T05:08:34.348Z,90
2023-04-29T05:09:06.264Z,90
2023-04-29T05:09:34.822Z,90
2023-04-29T05:09:54.433Z,90
2023-04-29T05:10:26.533Z,90
2023-04-29T05:10:59.186Z,90
2023-04-29T05:11:30.168Z,90
2023-04-29T05:12:02.200Z,90
2023-04-29T05:12:34.354Z,90
2023-04-29T05:13:06.167Z,90
2023-04-29T05:13:34.481Z,90
2023-04-29T05:13:54.240Z,90
2023-04-29T05:14:26.211Z,90
2023-04-29T05:14:58.709Z,90
2023-04-29T05:15:30.725Z,90
2023-04-29T05:16:05.147Z,90
2023-04-29T05:16:34.355Z,90
2023-04-29T05:17:06.264Z,90
2023-04-29T05:17:34.538Z,90
2023-04-29T05:17:54.235Z,90
2023-04-29T05:18:26.221Z,90
2023-04-29T05:18:58.687Z,90
2023-04-29T05:19:30.203Z,90
2023-04-29T05:20:03.534Z,90
2023-04-29T05:20:35.183Z,90
2023-04-29T05:21:06.150Z,90
2023-04-29T05:21:34.484Z,90
2023-04-29T05:21:54.200Z,90
2023-04-29T05:22:26.237Z,90
2023-04-29T05:22:58.689Z,90
2023-04-29T05:23:30.235Z,90
2023-04-29T05:24:02.254Z,90
2023-04-29T05:24:34.628Z,90
2023-04-29T05:25:06.460Z,90
2023-04-29T05:25:34.516Z,90
2023-04-29T05:25:54.426Z,90
2023-04-29T05:26:26.216Z,90
2023-04-29T05:26:59.151Z,90
2023-04-29T05:27:30.233Z,90
2023-04-29T05:28:02.186Z,90
2023-04-29T05:28:34.300Z,90
2023-04-29T05:29:06.194Z,90
2023-04-29T05:29:34.569Z,90
2023-04-29T05:29:54.448Z,90
2023-04-29T05:30:26.745Z,90
2023-04-29T05:30:58.807Z,90
2023-04-29T05:31:30.472Z,90
2023-04-29T05:32:02.210Z,90
2023-04-29T05:32:34.529Z,90
2023-04-29T05:33:06.299Z,90
2023-04-29T05:33:34.538Z,90
2023-04-29T05:33:54.140Z,90
2023-04-29T05:34:26.193Z,90
2023-04-29T05:34:58.983Z,90
2023-04-29T05:35:30.531Z,90
2023-04-29T05:36:02.191Z,90
2023-04-29T05:36:35.286Z,90
2023-04-29T05:37:06.191Z,90
2023-04-29T05:37:34.473Z,90
2023-04-29T05:37:54.260Z,90
2023-04-29T05:38:26.281Z,90
2023-04-29T05:38:58.686Z,90
2023-04-29T05:39:30.227Z,90
2023-04-29T05:40:03.502Z,90
2023-04-29T05:40:34.288Z,90
2023-04-29T05:41:06.244Z,90
2023-04-29T05:41:34.513Z,90
2023-04-29T05:41:54.203Z,90
2023-04-29T05:42:26.193Z,90
2023-04-29T05:42:59.232Z,90
2023-04-29T05:43:30.307Z,90
2023-04-29T05:44:02.173Z,90
2023-04-29T05:44:34.445Z,90
2023-04-29T05:45:08.576Z,90
2023-04-29T05:45:34.826Z,90
2023-04-29T05:45:54.451Z,90
2023-04-29T05:46:26.207Z,90
2023-04-29T05:46:58.701Z,90
2023-04-29T05:47:30.246Z,90
2023-04-29T05:48:02.282Z,90
2023-04-29T05:48:35.009Z,90
2023-04-29T05:49:06.216Z,90
2023-04-29T05:49:34.568Z,90
2023-04-29T05:49:54.576Z,90
2023-04-29T05:50:26.448Z,90
2023-04-29T05:50:58.623Z,90
2023-04-29T05:51:31.117Z,90
2023-04-29T05:52:02.250Z,90
2023-04-29T05:52:35.085Z,90
2023-04-29T05:53:06.585Z,90
2023-04-29T05:53:35.281Z,90
2023-04-29T05:53:54.738Z,90
2023-04-29T05:54:27.087Z,90
2023-04-29T05:54:58.645Z,90
2023-04-29T05:55:30.523Z,90
2023-04-29T05:56:02.243Z,90
2023-04-29T05:56:34.237Z,90
2023-04-29T05:57:07.381Z,90
2023-04-29T05:57:34.462Z,90
2023-04-29T05:57:54.200Z,90
2023-04-29T05:58:26.169Z,90
2023-04-29T05:58:59.193Z,90
2023-04-29T05:59:30.217Z,90
2023-04-29T06:00:03.901Z,90
2023-04-29T06:00:34.719Z,90
2023-04-29T06:01:06.170Z,90
2023-04-29T06:01:34.625Z,90
2023-04-29T06:01:54.179Z,90
2023-04-29T06:02:26.354Z,90
2023-04-29T06:02:59.416Z,79
2023-04-29T06:03:30.306Z,58
2023-04-29T06:04:02.303Z,42
2023-04-29T06:04:34.592Z,30
2023-04-29T06:05:06.817Z,24
2023-04-29T06:05:34.894Z,19
2023-04-29T06:05:54.890Z,15
2023-04-29T06:06:26.230Z,12
2023-04-29T06:06:58.579Z,9
2023-04-29T06:07:30.225Z,7
2023-04-29T06:08:02.152Z,4
2023-04-29T06:08:34.218Z,2
2023-04-29T06:09:10.817Z,1
2023-04-29T06:09:34.446Z,0
2023-04-29T06:09:54.415Z,1
2023-04-29T06:10:26.510Z,1
2023-04-29T06:10:59.351Z,0
2023-04-29T06:11:30.222Z,0
2023-04-29T06:12:02.168Z,2
2023-04-29T06:12:34.260Z,359
2023-04-29T06:13:06.156Z,359
2023-04-29T06:13:34.441Z,359
2023-04-29T06:13:54.143Z,1
2023-04-29T06:14:26.170Z,1
2023-04-29T06:14:58.561Z,360
2023-04-29T06:15:30.707Z,360
2023-04-29T06:16:03.272Z,360
2023-04-29T06:16:34.737Z,1
2023-04-29T06:17:06.137Z,2
2023-04-29T06:17:34.900Z,3
2023-04-29T06:17:54.224Z,2
2023-04-29T06:18:26.184Z,2
2023-04-29T06:18:58.676Z,2
2023-04-29T06:19:30.206Z,3
2023-04-29T06:20:03.528Z,3
2023-04-29T06:20:36.152Z,6
2023-04-29T06:21:06.199Z,6
2023-04-29T06:21:34.576Z,3
2023-04-29T06:21:54.140Z,4
2023-04-29T06:22:26.204Z,6
2023-04-29T06:22:58.576Z,5
2023-04-29T06:23:30.205Z,3
2023-04-29T06:24:02.184Z,4
2023-04-29T06:24:34.235Z,4
2023-04-29T06:25:06.469Z,4
2023-04-29T06:25:34.486Z,4
2023-04-29T06:25:54.451Z,4
2023-04-29T06:26:26.233Z,5
2023-04-29T06:26:59.313Z,4
2023-04-29T06:27:30.254Z,4
2023-04-29T06:28:02.275Z,5
2023-04-29T06:28:34.233Z,6
2023-04-29T06:29:06.146Z,8
2023-04-29T06:29:34.985Z,7
2023-04-29T06:29:54.468Z,6
2023-04-29T06:30:27.842Z,5
2023-04-29T06:30:58.609Z,6
2023-04-29T06:31:30.216Z,9
2023-04-29T06:32:02.305Z,8
2023-04-29T06:32:34.294Z,10
2023-04-29T06:33:06.189Z,13
2023-04-29T06:33:34.470Z,16
2023-04-29T06:33:54.181Z,12
2023-04-29T06:34:26.148Z,13
2023-04-29T06:34:58.592Z,14
2023-04-29T06:35:30.432Z,13
2023-04-29T06:36:02.220Z,13
2023-04-29T06:36:35.148Z,11
2023-04-29T06:37:06.166Z,9
2023-04-29T06:37:37.084Z,11
2023-04-29T06:37:54.282Z,11
2023-04-29T06:38:26.158Z,12
2023-04-29T06:38:58.623Z,8
2023-04-29T06:39:30.164Z,9
2023-04-29T06:40:03.700Z,9
2023-04-29T06:40:34.208Z,8
2023-04-29T06:41:06.162Z,8
2023-04-29T06:41:34.558Z,6
2023-04-29T06:41:54.169Z,5
2023-04-29T06:42:27.284Z,3
2023-04-29T06:42:59.388Z,1
2023-04-29T06:43:30.170Z,1
2023-04-29T06:44:02.185Z,2
2023-04-29T06:44:34.244Z,5
2023-04-29T06:45:06.819Z,8
2023-04-29T06:45:34.531Z,12
2023-04-29T06:45:55.287Z,15
2023-04-29T06:46:26.335Z,19
2023-04-29T06:46:58.834Z,23
2023-04-29T06:47:34.478Z,24
2023-04-29T06:48:02.353Z,24
2023-04-29T06:48:34.401Z,22
2023-04-29T06:49:06.290Z,24
2023-04-29T06:49:34.564Z,23
2023-04-29T06:49:54.465Z,21
2023-04-29T06:50:26.554Z,18
2023-04-29T06:50:58.729Z,16
2023-04-29T06:51:30.217Z,17
2023-04-29T06:52:02.380Z,19
2023-04-29T06:52:35.891Z,20
2023-04-29T06:53:06.203Z,19
2023-04-29T06:53:34.460Z,15
2023-04-29T06:53:54.131Z,12
2023-04-29T06:54:26.167Z,10
2023-04-29T06:54:58.675Z,7
2023-04-29T06:55:30.439Z,5
2023-04-29T06:56:02.192Z,4
2023-04-29T06:56:34.178Z,2
2023-04-29T06:57:06.164Z,360
2023-04-29T06:57:34.474Z,358
2023-04-29T06:57:54.199Z,359
2023-04-29T06:58:26.143Z,359
2023-04-29T06:58:59.963Z,360
2023-04-29T06:59:30.313Z,360
2023-04-29T07:00:04.093Z,3
2023-04-29T07:00:34.352Z,7
2023-04-29T07:01:06.243Z,8
2023-04-29T07:01:34.639Z,8
2023-04-29T07:01:54.439Z,7
2023-04-29T07:02:26.332Z,5
2023-04-29T07:02:58.901Z,7
2023-04-29T07:03:30.409Z,8
2023-04-29T07:04:02.485Z,7
2023-04-29T07:04:34.303Z,7
2023-04-29T07:05:06.529Z,10
2023-04-29T07:05:35.233Z,11
2023-04-29T07:05:54.542Z,12
2023-04-29T07:06:26.267Z,13
2023-04-29T07:06:58.795Z,14
2023-04-29T07:07:30.239Z,16
2023-04-29T07:08:03.361Z,16
2023-04-29T07:08:34.691Z,15